Time;durP1;ratioP1;P1;durP2;ratioP2;P2;SDS_P1;SDS_P2;PMS_P1;PMS_P2;Temp;Humidity;BMP_temperature;BMP_pressure;BME280_temperature;BME280_humidity;BME280_pressure;Samples;Min_cycle;Max_cycle;Signal;HPM_P1;HPM_P2
2022/01/14 00:00:49;;;;;;;347.52;176.68;;;-4.70;99.90;;;;;;5058729;28;20492;-82
2022/01/14 00:03:17;;;;;;;319.17;160.60;;;-4.60;99.90;;;;;;5057878;28;20068;-85
2022/01/14 00:05:44;;;;;;;366.95;184.65;;;-4.60;99.90;;;;;;5066346;23;20045;-77
2022/01/14 00:08:12;;;;;;;350.60;173.13;;;-4.60;99.90;;;;;;5026887;28;20548;-76
2022/01/14 00:10:41;;;;;;;363.77;185.52;;;-4.60;99.90;;;;;;5047075;28;20527;-77
2022/01/14 00:13:26;;;;;;;359.98;184.23;;;-4.50;99.90;;;;;;5033919;28;20492;-76
2022/01/14 00:15:54;;;;;;;382.10;193.50;;;-4.40;99.90;;;;;;5033749;28;20045;-78
2022/01/14 00:18:22;;;;;;;400.33;198.55;;;-4.30;99.90;;;;;;5031136;28;20049;-76
2022/01/14 00:20:49;;;;;;;392.20;186.00;;;-4.10;99.90;;;;;;5014303;28;20382;-76
2022/01/14 00:23:18;;;;;;;429.58;199.10;;;-4.00;99.90;;;;;;5028826;28;20058;-77
2022/01/14 00:34:15;;;;;;;314.90;138.80;;;-3.80;99.90;;;;;;4992417;28;20058;-76
2022/01/14 00:36:43;;;;;;;300.35;138.57;;;-3.70;99.90;;;;;;4991899;28;20052;-75
2022/01/14 00:39:12;;;;;;;306.77;138.13;;;-3.70;99.90;;;;;;4975198;28;20517;-76
2022/01/14 00:41:44;;;;;;;302.92;139.05;;;-3.60;99.90;;;;;;4975754;28;20054;-76
2022/01/14 00:44:16;;;;;;;346.27;152.30;;;-3.50;99.90;;;;;;4975951;28;20050;-77
2022/01/14 00:46:46;;;;;;;334.85;149.60;;;-3.40;99.90;;;;;;4992154;28;20042;-77
2022/01/14 00:49:18;;;;;;;318.55;142.50;;;-3.40;99.90;;;;;;4992246;28;20070;-78
2022/01/14 00:51:46;;;;;;;340.70;146.75;;;-3.40;99.90;;;;;;4992151;28;20074;-78
2022/01/14 00:54:14;;;;;;;329.77;152.48;;;-3.30;99.90;;;;;;4982954;28;20039;-77
2022/01/14 00:57:00;;;;;;;335.38;156.52;;;-3.30;99.90;;;;;;4985949;28;20236;-75
2022/01/14 00:59:28;;;;;;;329.67;151.30;;;-3.20;99.90;;;;;;4990741;28;20424;-78
2022/01/14 01:01:58;;;;;;;373.15;171.55;;;-3.30;99.90;;;;;;4990851;28;20050;-77
2022/01/14 01:04:30;;;;;;;339.50;163.73;;;-3.40;99.90;;;;;;4991679;28;20077;-75
2022/01/14 01:06:59;;;;;;;357.42;160.93;;;-3.30;99.90;;;;;;4991996;28;20125;-76
2022/01/14 01:09:29;;;;;;;375.55;181.07;;;-3.20;99.90;;;;;;5043646;28;20049;-75
2022/01/14 01:12:08;;;;;;;308.75;145.15;;;-3.20;99.90;;;;;;5032065;28;20104;-75
2022/01/14 01:14:43;;;;;;;284.20;132.38;;;-3.20;99.90;;;;;;5032357;28;20388;-78
2022/01/14 01:17:11;;;;;;;279.42;131.10;;;-3.20;99.90;;;;;;5031879;28;20069;-76
2022/01/14 01:19:39;;;;;;;281.98;132.45;;;-3.20;99.90;;;;;;5031480;28;20431;-77
2022/01/14 01:22:07;;;;;;;270.95;130.75;;;-3.20;99.90;;;;;;5033105;28;20042;-77
2022/01/14 01:24:47;;;;;;;274.63;131.60;;;-3.10;99.90;;;;;;5047808;28;20398;-76
2022/01/14 01:27:17;;;;;;;292.80;138.98;;;-3.10;99.90;;;;;;5042121;28;20072;-78
2022/01/14 01:29:52;;;;;;;272.17;128.35;;;-3.00;99.90;;;;;;5032952;28;20076;-78
2022/01/14 01:32:20;;;;;;;264.07;127.23;;;-3.00;99.90;;;;;;5051257;28;20057;-78
2022/01/14 01:34:47;;;;;;;246.43;112.50;;;-2.90;99.90;;;;;;5052357;28;20118;-78
2022/01/14 01:37:15;;;;;;;227.20;105.80;;;-2.90;99.90;;;;;;5056366;28;20037;-78
2022/01/14 01:39:43;;;;;;;228.48;107.65;;;-3.00;99.90;;;;;;5053234;28;20099;-78
2022/01/14 01:42:11;;;;;;;229.15;106.45;;;-3.00;99.90;;;;;;5055464;28;20045;-79
2022/01/14 01:44:41;;;;;;;218.80;105.30;;;-3.00;99.90;;;;;;5054737;28;20120;-78
2022/01/14 01:47:10;;;;;;;228.35;107.72;;;-3.00;99.90;;;;;;5055427;28;20053;-77
2022/01/14 01:49:39;;;;;;;226.27;106.63;;;-3.00;99.90;;;;;;5038003;28;20119;-78
2022/01/14 01:52:07;;;;;;;225.65;105.30;;;-3.00;99.90;;;;;;5028306;28;20042;-78
2022/01/14 01:54:35;;;;;;;212.20;102.55;;;-3.10;99.90;;;;;;5041457;28;20412;-75
2022/01/14 01:57:03;;;;;;;221.13;105.70;;;-3.10;99.90;;;;;;5026632;28;20077;-77
2022/01/14 01:59:31;;;;;;;224.60;105.13;;;-3.10;99.90;;;;;;5032275;28;20077;-76
2022/01/14 02:02:01;;;;;;;218.32;103.85;;;-3.10;99.90;;;;;;5022397;28;20049;-77
2022/01/14 02:04:31;;;;;;;233.55;110.68;;;-3.00;99.90;;;;;;5035318;28;20456;-78
2022/01/14 02:06:59;;;;;;;231.88;113.18;;;-3.00;99.90;;;;;;5020441;28;20054;-77
2022/01/14 02:09:27;;;;;;;244.55;109.65;;;-3.00;99.90;;;;;;5035616;28;20041;-75
2022/01/14 02:11:54;;;;;;;245.55;112.50;;;-3.00;99.90;;;;;;5029403;28;20092;-77
2022/01/14 02:14:51;;;;;;;239.48;115.60;;;-3.00;99.90;;;;;;5040136;28;20069;-78
2022/01/14 02:22:49;;;;;;;252.02;119.78;;;-3.00;99.90;;;;;;5051228;28;20424;-77
2022/01/14 02:25:28;;;;;;;255.82;122.80;;;-3.00;99.90;;;;;;5034452;28;20042;-78
2022/01/14 02:27:56;;;;;;;256.65;120.13;;;-3.00;99.90;;;;;;5060618;28;20049;-77
2022/01/14 02:30:25;;;;;;;266.38;123.50;;;-3.00;99.90;;;;;;5054227;28;20044;-77
2022/01/14 02:32:52;;;;;;;267.90;129.10;;;-3.10;99.90;;;;;;5056848;28;20098;-77
2022/01/14 02:35:21;;;;;;;280.67;130.45;;;-3.20;99.90;;;;;;5053528;28;20578;-78
2022/01/14 02:37:49;;;;;;;264.85;127.10;;;-3.20;99.90;;;;;;5053955;28;20047;-78
2022/01/14 02:40:18;;;;;;;267.73;131.63;;;-3.20;99.90;;;;;;5038988;28;20083;-77
2022/01/14 02:42:47;;;;;;;277.98;131.95;;;-3.20;99.90;;;;;;5034618;28;20096;-78
2022/01/14 02:45:15;;;;;;;287.75;135.95;;;-3.30;99.90;;;;;;5036467;28;20084;-77
2022/01/14 02:47:43;;;;;;;287.00;138.45;;;-3.30;99.90;;;;;;5035052;28;20042;-78
2022/01/14 02:50:16;;;;;;;293.27;139.95;;;-3.40;99.90;;;;;;5040440;28;20123;-78
2022/01/14 02:52:57;;;;;;;275.27;128.60;;;-3.30;99.90;;;;;;5044516;28;20053;-79
2022/01/14 02:55:29;;;;;;;278.92;132.05;;;-3.30;99.90;;;;;;5031943;28;20046;-78
2022/01/14 02:57:58;;;;;;;265.35;124.93;;;-3.30;99.90;;;;;;5027113;28;20052;-76
2022/01/14 03:00:28;;;;;;;269.90;128.80;;;-3.30;99.90;;;;;;5035953;28;20463;-77
2022/01/14 03:02:58;;;;;;;267.85;128.52;;;-3.30;99.90;;;;;;5035161;28;20045;-77
2022/01/14 03:05:28;;;;;;;266.58;128.52;;;-3.30;99.90;;;;;;5034003;28;20041;-77
2022/01/14 03:07:57;;;;;;;273.92;128.13;;;-3.30;99.90;;;;;;5031724;28;20042;-77
2022/01/14 03:10:25;;;;;;;301.73;139.45;;;-3.30;99.90;;;;;;5026544;28;20054;-78
2022/01/14 03:12:53;;;;;;;302.60;139.75;;;-3.30;99.90;;;;;;5046273;28;20037;-79
2022/01/14 03:15:21;;;;;;;298.15;139.88;;;-3.30;99.90;;;;;;5025899;28;20041;-78
2022/01/14 03:17:48;;;;;;;307.77;141.98;;;-3.40;99.90;;;;;;5036408;28;20453;-77
2022/01/14 03:20:41;;;;;;;294.35;140.02;;;-3.40;99.90;;;;;;5029320;28;20148;-77
2022/01/14 03:23:11;;;;;;;302.98;144.38;;;-3.50;99.90;;;;;;5020553;28;20064;-77
2022/01/14 03:25:48;;;;;;;306.30;146.30;;;-3.60;99.90;;;;;;5033110;28;20052;-77
2022/01/14 03:28:18;;;;;;;306.98;148.88;;;-3.60;99.90;;;;;;5035886;28;20048;-78
2022/01/14 03:30:46;;;;;;;278.70;138.07;;;-3.60;99.90;;;;;;5054410;28;20047;-78
2022/01/14 03:33:13;;;;;;;258.85;123.10;;;-3.60;99.90;;;;;;5050519;28;20049;-77
2022/01/14 03:35:41;;;;;;;248.60;119.82;;;-3.60;99.90;;;;;;5054535;28;20063;-77
2022/01/14 03:38:11;;;;;;;288.20;135.85;;;-3.70;99.90;;;;;;5054316;28;20045;-77
2022/01/14 03:40:39;;;;;;;266.30;128.18;;;-3.80;99.90;;;;;;5054504;28;20439;-78
2022/01/14 03:43:06;;;;;;;253.35;123.88;;;-3.80;99.90;;;;;;5048503;28;20558;-77
2022/01/14 03:45:34;;;;;;;241.93;117.93;;;-3.90;99.90;;;;;;5034175;28;20042;-77
2022/01/14 03:48:01;;;;;;;247.07;123.47;;;-3.90;99.90;;;;;;5034423;28;20489;-78
2022/01/14 03:50:29;;;;;;;259.88;128.75;;;-3.90;99.90;;;;;;5033206;28;20057;-77
2022/01/14 03:52:56;;;;;;;253.35;122.78;;;-3.90;99.90;;;;;;5034403;28;20041;-77
2022/01/14 03:55:25;;;;;;;237.45;117.80;;;-3.90;99.90;;;;;;5032757;28;20053;-77
2022/01/14 03:57:53;;;;;;;234.43;118.82;;;-3.90;99.90;;;;;;5032774;28;20500;-78
2022/01/14 04:00:21;;;;;;;232.02;116.53;;;-4.00;99.90;;;;;;5033008;28;20056;-76
2022/01/14 04:02:49;;;;;;;218.73;115.53;;;-4.10;99.90;;;;;;5034418;28;20099;-77
2022/01/14 04:05:17;;;;;;;225.15;118.57;;;-4.10;99.90;;;;;;5041250;28;20525;-77
2022/01/14 04:07:45;;;;;;;213.68;113.75;;;-4.20;99.90;;;;;;5053661;28;20056;-78
2022/01/14 04:10:13;;;;;;;223.52;119.13;;;-4.20;99.90;;;;;;5055927;28;20063;-78
2022/01/14 04:12:49;;;;;;;221.77;117.57;;;-4.20;99.90;;;;;;5053931;28;20041;-78
2022/01/14 04:18:05;;;;;;;225.27;118.45;;;-4.00;99.90;;;;;;5050912;28;20488;-78
2022/01/14 04:20:34;;;;;;;219.48;118.05;;;-4.10;99.90;;;;;;5034592;28;20046;-78
2022/01/14 04:23:02;;;;;;;218.50;115.40;;;-4.00;99.90;;;;;;5031736;28;20045;-78
2022/01/14 04:25:32;;;;;;;211.80;113.40;;;-4.10;99.90;;;;;;5030035;28;20042;-77
2022/01/14 04:28:01;;;;;;;226.70;120.80;;;-4.10;99.90;;;;;;5017880;28;20046;-77
2022/01/14 04:30:33;;;;;;;220.85;117.95;;;-4.10;99.90;;;;;;5034954;28;20145;-77
2022/01/14 04:33:05;;;;;;;231.65;120.45;;;-4.20;99.90;;;;;;5036481;28;20041;-76
2022/01/14 04:35:33;;;;;;;213.23;110.05;;;-4.30;99.90;;;;;;5027180;28;20072;-76
2022/01/14 04:38:01;;;;;;;194.05;104.30;;;-4.20;99.90;;;;;;5018435;28;20052;-76
2022/01/14 04:40:29;;;;;;;191.82;102.85;;;-4.20;99.90;;;;;;5029352;28;20421;-77
2022/01/14 04:42:58;;;;;;;176.93;93.72;;;-4.20;99.90;;;;;;5015023;28;20050;-76
2022/01/14 04:45:40;;;;;;;179.93;94.53;;;-4.20;99.90;;;;;;5033347;28;20037;-78
2022/01/14 04:48:11;;;;;;;161.48;83.68;;;-4.30;99.90;;;;;;5032625;28;20052;-78
2022/01/14 04:50:39;;;;;;;159.60;84.15;;;-4.30;99.90;;;;;;5033892;28;20049;-77
2022/01/14 04:53:09;;;;;;;173.48;90.28;;;-4.30;99.90;;;;;;5032244;28;20098;-79
2022/01/14 04:55:37;;;;;;;197.85;108.72;;;-4.30;99.90;;;;;;5032740;28;20038;-78
2022/01/14 04:58:06;;;;;;;207.15;110.97;;;-4.40;99.90;;;;;;5032010;28;20085;-78
2022/01/14 05:00:36;;;;;;;225.77;119.35;;;-4.50;99.90;;;;;;5024557;28;20493;-77
2022/01/14 05:03:06;;;;;;;229.43;125.20;;;-4.50;99.90;;;;;;5036576;28;20109;-76
2022/01/14 05:05:38;;;;;;;233.65;125.13;;;-4.50;99.90;;;;;;5043652;28;20077;-78
2022/01/14 05:08:10;;;;;;;204.23;113.38;;;-4.70;99.90;;;;;;5034489;28;20045;-77
2022/01/14 05:11:00;;;;;;;208.73;115.55;;;-4.60;99.90;;;;;;5033593;28;20076;-76
2022/01/14 05:13:28;;;;;;;201.20;109.47;;;-4.60;99.90;;;;;;5040096;28;20049;-77
2022/01/14 05:15:58;;;;;;;195.45;108.72;;;-4.60;99.90;;;;;;5039984;28;20041;-77
2022/01/14 05:18:26;;;;;;;186.35;103.18;;;-4.60;99.90;;;;;;5038860;28;20037;-77
2022/01/14 05:20:54;;;;;;;182.77;103.43;;;-4.70;99.90;;;;;;5028576;28;20045;-78
2022/01/14 05:23:25;;;;;;;195.30;106.93;;;-4.70;99.90;;;;;;5031085;28;20072;-77
2022/01/14 05:25:57;;;;;;;212.85;112.88;;;-4.70;99.90;;;;;;5029893;28;20043;-77
2022/01/14 05:28:25;;;;;;;205.55;111.97;;;-4.70;99.90;;;;;;5035162;28;20055;-77
2022/01/14 05:30:52;;;;;;;219.95;118.55;;;-4.70;99.90;;;;;;5035909;28;20041;-77
2022/01/14 05:33:21;;;;;;;224.77;119.35;;;-4.70;99.90;;;;;;5036609;28;20111;-77
2022/01/14 05:35:51;;;;;;;229.10;121.80;;;-4.70;99.90;;;;;;5037658;28;20133;-78
2022/01/14 05:38:19;;;;;;;253.73;130.05;;;-4.60;99.90;;;;;;5038414;28;20049;-77
2022/01/14 05:40:46;;;;;;;247.38;129.82;;;-4.70;99.90;;;;;;5049837;28;20048;-77
2022/01/14 05:43:14;;;;;;;224.63;122.15;;;-4.70;99.90;;;;;;5055703;28;20041;-78
2022/01/14 05:45:41;;;;;;;221.55;118.47;;;-4.70;99.90;;;;;;5056428;28;20061;-78
2022/01/14 05:48:09;;;;;;;235.38;127.93;;;-4.70;99.90;;;;;;5048141;28;20405;-79
2022/01/14 05:50:39;;;;;;;233.77;121.75;;;-4.70;99.90;;;;;;5039833;28;20148;-77
2022/01/14 05:53:07;;;;;;;259.65;135.25;;;-4.70;99.90;;;;;;5043066;28;20050;-79
2022/01/14 05:55:35;;;;;;;260.40;131.80;;;-4.70;99.90;;;;;;5031903;28;20038;-78
2022/01/14 05:58:03;;;;;;;278.20;133.50;;;-4.70;99.90;;;;;;5031970;28;20054;-77
2022/01/14 06:00:31;;;;;;;282.42;139.73;;;-4.80;99.90;;;;;;5016922;28;20069;-77
2022/01/14 06:02:58;;;;;;;229.88;114.22;;;-4.80;99.90;;;;;;5030677;28;20050;-77
2022/01/14 06:05:26;;;;;;;229.43;113.95;;;-4.80;99.90;;;;;;5034822;28;20050;-78
2022/01/14 06:07:55;;;;;;;224.90;112.90;;;-4.80;99.90;;;;;;5034973;28;20141;-78
2022/01/14 06:10:23;;;;;;;245.00;121.72;;;-4.80;99.90;;;;;;5036240;28;20069;-77
2022/01/14 06:12:50;;;;;;;255.30;125.82;;;-4.80;99.90;;;;;;5035788;28;20046;-77
2022/01/14 06:15:18;;;;;;;254.93;129.68;;;-4.80;99.90;;;;;;5035799;28;20073;-78
2022/01/14 06:17:46;;;;;;;275.10;133.32;;;-4.80;99.90;;;;;;5033729;28;20492;-76
2022/01/14 06:20:14;;;;;;;263.55;132.20;;;-4.80;99.90;;;;;;5028388;28;20029;-77
2022/01/14 06:22:42;;;;;;;243.02;124.18;;;-4.80;99.90;;;;;;5032746;28;20042;-78
2022/01/14 06:25:12;;;;;;;278.23;146.57;;;-4.80;99.90;;;;;;5036709;28;20045;-77
2022/01/14 06:27:39;;;;;;;237.05;122.22;;;-4.90;99.90;;;;;;5035813;28;20046;-78
2022/01/14 06:30:14;;;;;;;272.55;137.48;;;-4.80;99.90;;;;;;5034348;28;20054;-78
2022/01/14 06:32:42;;;;;;;223.60;120.75;;;-4.90;99.90;;;;;;5034597;28;20069;-76
2022/01/14 06:35:11;;;;;;;228.45;121.47;;;-4.90;99.90;;;;;;5033328;28;20037;-78
2022/01/14 06:37:39;;;;;;;250.07;130.35;;;-4.80;99.90;;;;;;5050935;28;20053;-78
2022/01/14 06:40:12;;;;;;;257.65;132.88;;;-4.80;99.90;;;;;;5050929;28;20140;-77
2022/01/14 06:42:45;;;;;;;272.35;138.93;;;-4.80;99.90;;;;;;5036396;28;20508;-79
2022/01/14 06:45:13;;;;;;;288.67;152.52;;;-4.80;99.90;;;;;;5057141;28;20045;-80
2022/01/14 06:47:40;;;;;;;287.45;157.25;;;-4.80;99.90;;;;;;5041322;28;20077;-79
2022/01/14 06:50:09;;;;;;;273.88;145.65;;;-4.80;99.90;;;;;;5036346;28;20034;-82
2022/01/14 06:52:37;;;;;;;282.00;148.35;;;-4.80;99.90;;;;;;5028284;28;20102;-79
2022/01/14 06:55:06;;;;;;;270.00;141.82;;;-4.80;99.90;;;;;;5037491;28;20095;-78
2022/01/14 06:57:35;;;;;;;256.10;138.23;;;-4.70;99.90;;;;;;5036616;28;20045;-80
2022/01/14 07:00:05;;;;;;;280.50;151.05;;;-4.60;99.90;;;;;;5021998;28;20042;-77
2022/01/14 07:02:33;;;;;;;287.02;151.57;;;-4.50;99.90;;;;;;5045827;28;20053;-78
2022/01/14 07:05:01;;;;;;;352.42;189.32;;;-4.40;99.90;;;;;;5050016;28;20053;-78
2022/01/14 07:07:29;;;;;;;333.95;169.93;;;-4.40;99.90;;;;;;5043230;28;20069;-79
2022/01/14 07:09:59;;;;;;;318.92;169.52;;;-4.40;99.90;;;;;;5025178;28;20064;-78
2022/01/14 07:12:28;;;;;;;337.30;183.77;;;-4.30;99.90;;;;;;5027619;28;20583;-77
2022/01/14 07:14:56;;;;;;;318.27;166.48;;;-4.30;99.90;;;;;;5023800;28;20073;-77
2022/01/14 07:17:26;;;;;;;339.75;178.77;;;-4.20;99.90;;;;;;5029451;28;20124;-75
2022/01/14 07:19:57;;;;;;;355.73;187.30;;;-4.00;99.90;;;;;;5033486;28;20412;-76
2022/01/14 07:22:25;;;;;;;370.90;187.57;;;-3.90;99.90;;;;;;5014981;28;20052;-78
2022/01/14 07:24:53;;;;;;;385.13;199.32;;;-3.70;99.90;;;;;;5013340;28;20046;-78
2022/01/14 07:27:21;;;;;;;359.08;184.27;;;-3.60;99.90;;;;;;5029680;28;20053;-77
2022/01/14 07:29:48;;;;;;;360.05;181.23;;;-3.50;99.90;;;;;;5023702;28;20060;-77
2022/01/14 07:32:16;;;;;;;370.25;189.15;;;-3.40;99.90;;;;;;5034412;28;20045;-79
2022/01/14 07:34:48;;;;;;;366.90;178.80;;;-3.30;99.90;;;;;;5034269;28;20186;-78
2022/01/14 07:37:15;;;;;;;405.73;202.30;;;-3.10;99.90;;;;;;5034957;28;20049;-75
2022/01/14 07:39:43;;;;;;;362.05;186.15;;;-2.90;99.90;;;;;;5033671;28;20045;-77
2022/01/14 07:42:11;;;;;;;376.20;189.32;;;-2.70;99.90;;;;;;5035372;28;20045;-77
2022/01/14 07:44:40;;;;;;;358.52;183.23;;;-2.60;99.90;;;;;;5035505;28;20041;-77
2022/01/14 07:47:11;;;;;;;325.38;161.90;;;-2.60;99.90;;;;;;5035541;28;20053;-77
2022/01/14 07:49:38;;;;;;;340.13;158.43;;;-2.60;99.90;;;;;;5051206;28;20087;-80
2022/01/14 07:52:08;;;;;;;303.80;151.98;;;-2.60;99.90;;;;;;5034497;28;20381;-78
2022/01/14 07:54:36;;;;;;;294.58;146.70;;;-2.30;99.90;;;;;;5035793;28;20037;-78
2022/01/14 07:57:04;;;;;;;295.52;148.95;;;-2.20;99.90;;;;;;5035372;28;20036;-79
2022/01/14 07:59:35;;;;;;;291.30;143.13;;;-2.10;99.90;;;;;;5026347;28;20500;-80
2022/01/14 08:02:03;;;;;;;324.90;159.02;;;-1.90;99.90;;;;;;5038256;28;20049;-78
2022/01/14 08:04:34;;;;;;;299.48;151.02;;;-1.80;99.90;;;;;;5041043;28;20068;-78
2022/01/14 08:07:08;;;;;;;310.58;154.05;;;-1.70;99.90;;;;;;5040140;28;20707;-79
2022/01/14 08:09:38;;;;;;;337.35;174.25;;;-1.60;99.90;;;;;;5043440;28;20050;-78
2022/01/14 08:12:06;;;;;;;349.13;182.77;;;-1.60;99.90;;;;;;5018955;28;20042;-77
2022/01/14 08:14:35;;;;;;;323.70;162.10;;;-1.60;99.90;;;;;;5018344;28;20046;-78
2022/01/14 08:17:03;;;;;;;288.45;147.93;;;-1.50;99.90;;;;;;5017596;28;20128;-77
2022/01/14 08:19:33;;;;;;;305.58;156.15;;;-1.40;99.90;;;;;;5032826;28;20073;-78
2022/01/14 08:22:02;;;;;;;309.27;162.23;;;-1.30;99.90;;;;;;5034338;28;20059;-78
2022/01/14 08:24:30;;;;;;;325.80;171.98;;;-1.40;99.90;;;;;;5033159;28;20049;-77
2022/01/14 08:27:00;;;;;;;299.25;157.25;;;-1.30;99.90;;;;;;5032589;28;20045;-77
2022/01/14 08:29:52;;;;;;;332.77;172.48;;;-1.20;99.90;;;;;;5034611;28;20073;-78
2022/01/14 08:32:21;;;;;;;323.48;167.80;;;-1.10;99.90;;;;;;5040964;28;20053;-78
2022/01/14 08:34:48;;;;;;;335.80;175.25;;;-1.00;99.90;;;;;;5040573;28;20049;-77
2022/01/14 08:37:17;;;;;;;345.60;180.20;;;-0.90;99.90;;;;;;5034200;28;20037;-80
2022/01/14 08:39:44;;;;;;;340.17;181.00;;;-0.80;99.90;;;;;;5036971;28;20049;-78
2022/01/14 08:42:17;;;;;;;322.42;164.68;;;-0.70;99.90;;;;;;5034927;28;20045;-79
2022/01/14 08:44:45;;;;;;;303.55;159.32;;;-0.70;99.90;;;;;;5037259;28;20068;-79
2022/01/14 08:47:13;;;;;;;293.33;152.65;;;-0.60;99.90;;;;;;5040583;28;20038;-79
2022/01/14 08:49:42;;;;;;;270.05;139.57;;;-0.50;99.90;;;;;;5050046;28;20052;-81
2022/01/14 08:52:11;;;;;;;270.70;139.82;;;-0.40;99.90;;;;;;5045032;28;20060;-78
2022/01/14 08:54:39;;;;;;;277.00;140.15;;;-0.30;99.90;;;;;;5042204;28;20045;-76
2022/01/14 08:57:07;;;;;;;263.27;131.68;;;-0.20;99.90;;;;;;5041736;28;20037;-79
2022/01/14 08:59:39;;;;;;;284.50;142.90;;;0.00;99.90;;;;;;5039222;28;20033;-79
2022/01/14 09:02:08;;;;;;;252.95;131.32;;;0.10;99.90;;;;;;5029463;28;20038;-78
2022/01/14 09:04:36;;;;;;;253.23;128.73;;;0.30;99.90;;;;;;5042529;28;20527;-78
2022/01/14 09:07:04;;;;;;;251.05;128.73;;;0.40;99.90;;;;;;5039790;28;20403;-79
2022/01/14 09:09:32;;;;;;;233.63;117.88;;;0.50;99.90;;;;;;5041743;28;20049;-79
2022/01/14 09:12:00;;;;;;;223.18;115.05;;;0.60;99.90;;;;;;5042002;28;20069;-79
2022/01/14 09:14:30;;;;;;;217.38;109.30;;;0.70;99.90;;;;;;5050370;28;20447;-78
2022/01/14 09:16:59;;;;;;;210.30;110.65;;;0.90;99.90;;;;;;5039895;28;20045;-77
2022/01/14 09:19:27;;;;;;;208.38;111.53;;;1.00;99.90;;;;;;5037744;28;20045;-81
2022/01/14 09:21:54;;;;;;;212.20;108.70;;;1.10;99.90;;;;;;5048968;28;20140;-78
2022/01/14 09:24:22;;;;;;;209.93;109.85;;;1.10;99.90;;;;;;5040512;28;20045;-79
2022/01/14 09:26:51;;;;;;;212.68;104.75;;;1.10;99.90;;;;;;5039837;28;20065;-79
2022/01/14 09:29:20;;;;;;;198.30;105.22;;;1.20;99.90;;;;;;5040771;28;20484;-80
2022/01/14 09:31:48;;;;;;;200.40;104.57;;;1.30;99.90;;;;;;5039185;28;20069;-80
2022/01/14 09:34:17;;;;;;;194.60;101.55;;;1.50;99.90;;;;;;5040605;28;20417;-79
2022/01/14 09:36:45;;;;;;;205.82;108.03;;;1.60;99.90;;;;;;5037463;28;20041;-79
2022/01/14 09:39:13;;;;;;;184.77;97.85;;;1.80;99.90;;;;;;5034022;28;20050;-79
2022/01/14 09:41:40;;;;;;;166.73;90.60;;;2.00;99.90;;;;;;5041792;28;20095;-79
2022/01/14 09:44:08;;;;;;;167.60;90.25;;;2.00;99.90;;;;;;5038785;28;20092;-78
2022/01/14 09:46:36;;;;;;;175.85;92.28;;;2.20;99.90;;;;;;5039217;28;20473;-78
2022/01/14 09:49:05;;;;;;;168.57;91.45;;;2.30;99.90;;;;;;5038797;28;20480;-77
2022/01/14 09:51:34;;;;;;;160.30;85.38;;;2.50;99.90;;;;;;5038479;28;20049;-79
2022/01/14 09:54:02;;;;;;;168.18;92.82;;;2.60;99.90;;;;;;5041581;28;20046;-77
2022/01/14 09:56:30;;;;;;;214.85;116.45;;;2.70;99.90;;;;;;5034575;28;20057;-77
2022/01/14 09:58:57;;;;;;;241.82;126.80;;;2.70;99.90;;;;;;5038425;28;20065;-79
2022/01/14 10:01:25;;;;;;;237.00;125.30;;;2.90;99.90;;;;;;5039478;28;20125;-80
2022/01/14 10:03:55;;;;;;;229.23;127.20;;;3.00;99.90;;;;;;5056076;28;20045;-78
2022/01/14 10:06:38;;;;;;;205.30;107.93;;;3.20;99.90;;;;;;5055135;28;20040;-77
2022/01/14 10:09:09;;;;;;;223.00;118.05;;;3.30;99.90;;;;;;5039451;28;20045;-78
2022/01/14 10:11:39;;;;;;;256.75;139.48;;;3.50;99.90;;;;;;5036084;28;20053;-79
2022/01/14 10:14:09;;;;;;;266.05;142.63;;;3.60;99.90;;;;;;5019897;28;20378;-78
2022/01/14 10:16:40;;;;;;;274.60;146.43;;;3.70;99.90;;;;;;5033061;28;20153;-79
2022/01/14 10:19:22;;;;;;;270.42;144.25;;;3.80;99.90;;;;;;5034128;28;20072;-80
2022/01/14 10:21:51;;;;;;;259.40;137.85;;;4.00;99.90;;;;;;5040263;28;20099;-80
2022/01/14 10:24:24;;;;;;;220.13;121.32;;;4.10;99.90;;;;;;5040346;28;20500;-79
2022/01/14 10:26:53;;;;;;;204.57;111.05;;;4.30;99.90;;;;;;5042167;28;20137;-79
2022/01/14 10:29:29;;;;;;;204.18;111.28;;;4.30;99.90;;;;;;5044538;28;20136;-80
2022/01/14 10:31:57;;;;;;;166.13;92.50;;;4.40;99.90;;;;;;5059907;28;20045;-80
2022/01/14 10:34:24;;;;;;;167.35;93.80;;;4.50;99.90;;;;;;5051228;28;20065;-78
2022/01/14 10:37:10;;;;;;;186.95;98.97;;;4.60;99.90;;;;;;5054263;28;20037;-78
2022/01/14 10:39:47;;;;;;;199.38;108.20;;;4.70;99.90;;;;;;5055268;28;20040;-79
2022/01/14 10:42:29;;;;;;;221.27;119.45;;;4.80;99.90;;;;;;5051450;28;20044;-79
2022/01/14 10:45:15;;;;;;;213.90;118.18;;;4.90;99.90;;;;;;5041460;28;20043;-78
2022/01/14 10:47:50;;;;;;;226.85;122.65;;;5.00;99.90;;;;;;5045723;28;20124;-78
2022/01/14 10:50:18;;;;;;;;;;;5.10;99.90;;;;;;5038252;28;20465;-78
2022/01/14 10:52:50;;;;;;;239.40;128.38;;;5.30;99.90;;;;;;5038648;28;19948;-76
2022/01/14 10:55:29;;;;;;;242.20;136.82;;;5.30;99.90;;;;;;5043563;28;20127;-78
2022/01/14 10:57:57;;;;;;;279.45;153.45;;;5.40;99.90;;;;;;5051090;28;20042;-78
2022/01/14 11:00:29;;;;;;;283.38;154.45;;;5.50;99.90;;;;;;5050169;28;20042;-78
2022/01/14 11:03:07;;;;;;;290.77;158.95;;;5.50;99.90;;;;;;5047228;28;20069;-79
2022/01/14 11:05:38;;;;;;;288.08;161.27;;;5.60;99.90;;;;;;5045755;28;20087;-81
2022/01/14 11:08:07;;;;;;;281.52;156.00;;;5.70;99.90;;;;;;5046717;28;20068;-78
2022/01/14 11:10:41;;;;;;;267.40;150.27;;;5.70;99.90;;;;;;5046778;28;20038;-80
2022/01/14 11:13:24;;;;;;;252.20;141.70;;;5.80;99.90;;;;;;5043869;28;20053;-81
2022/01/14 11:15:52;;;;;;;246.23;137.85;;;5.90;99.90;;;;;;5043654;28;20052;-80
2022/01/14 11:18:19;;;;;;;250.60;142.18;;;6.00;99.90;;;;;;5044063;28;20400;-80
2022/01/14 11:23:33;;;;;;;242.77;134.77;;;6.20;99.90;;;;;;5041785;28;20604;-79
2022/01/14 11:26:04;;;;;;;236.20;130.70;;;6.20;99.90;;;;;;5039464;28;20051;-78
2022/01/14 11:28:39;;;;;;;213.38;115.60;;;6.20;99.90;;;;;;5041561;28;20045;-79
2022/01/14 11:31:27;;;;;;;190.02;106.90;;;6.30;99.90;;;;;;5040314;28;20496;-80
2022/01/14 11:33:55;;;;;;;182.90;102.15;;;6.30;99.90;;;;;;5040787;28;20065;-78
2022/01/14 11:36:28;;;;;;;171.32;100.63;;;6.40;99.90;;;;;;5038719;28;20113;-81
2022/01/14 11:39:00;;;;;;;164.90;93.45;;;6.50;99.90;;;;;;5040391;28;20052;-78
2022/01/14 11:41:54;;;;;;;143.32;81.97;;;6.60;99.90;;;;;;5039936;28;20133;-80
2022/01/14 11:44:45;;;;;;;133.68;76.28;;;6.70;99.90;;;;;;5042901;28;20045;-79
2022/01/14 11:47:47;;;;;;;146.00;81.10;;;6.70;99.90;;;;;;5044331;28;20406;-80
2022/01/14 11:50:48;;;;;;;143.80;85.95;;;6.70;99.90;;;;;;5045676;28;20408;-80
2022/01/14 11:53:37;;;;;;;162.43;90.75;;;6.70;99.90;;;;;;5048980;28;20079;-79
2022/01/14 11:56:08;;;;;;;169.68;98.60;;;6.70;99.90;;;;;;5048037;28;20072;-80
2022/01/14 11:58:37;;;;;;;185.18;106.05;;;6.70;99.90;;;;;;5044039;28;20473;-80
2022/01/14 12:01:05;;;;;;;196.73;113.28;;;6.70;99.90;;;;;;5040034;28;20049;-79
2022/01/14 12:03:33;;;;;;;202.95;118.07;;;6.80;99.90;;;;;;5041430;28;20049;-81
2022/01/14 12:06:12;;;;;;;220.18;128.27;;;6.80;99.90;;;;;;5145119;23;20050;-85
2022/01/14 12:14:57;;;;;;;227.07;129.05;;;7.10;99.90;;;;;;5127242;27;20051;-85
2022/01/14 12:17:41;;;;;;;234.38;134.35;;;7.20;99.90;;;;;;5144466;27;20040;-84
2022/01/14 12:20:33;;;;;;;235.48;138.00;;;7.30;99.90;;;;;;5141065;27;20043;-84
2022/01/14 12:23:21;;;;;;;240.63;133.77;;;7.30;99.90;;;;;;5142472;27;20137;-84
2022/01/14 12:26:19;;;;;;;264.83;149.85;;;7.40;99.90;;;;;;5138772;27;20054;-84
2022/01/14 12:29:10;;;;;;;245.57;143.70;;;7.50;99.90;;;;;;5142048;27;20142;-85
2022/01/14 12:32:04;;;;;;;242.65;142.07;;;7.50;99.90;;;;;;5140490;27;20062;-84
2022/01/14 12:34:32;;;;;;;228.63;128.35;;;7.60;99.90;;;;;;5138840;27;20039;-84
2022/01/14 12:37:00;;;;;;;207.40;120.03;;;7.60;99.90;;;;;;5137612;27;20035;-83
2022/01/14 12:39:28;;;;;;;197.43;118.47;;;7.70;99.90;;;;;;5137172;27;20462;-84
2022/01/14 12:41:58;;;;;;;192.25;114.15;;;7.70;99.90;;;;;;5136329;27;20050;-84
2022/01/14 12:44:26;;;;;;;184.40;106.38;;;7.80;99.90;;;;;;5136044;28;20515;-84
2022/01/14 12:47:00;;;;;;;161.80;93.00;;;7.90;99.90;;;;;;5135704;28;20043;-84
2022/01/14 12:49:34;;;;;;;157.95;90.38;;;7.90;99.90;;;;;;5137643;28;20059;-85
2022/01/14 12:52:01;;;;;;;135.85;78.95;;;7.90;99.90;;;;;;5141312;28;20403;-85
2022/01/14 12:54:31;;;;;;;126.90;75.90;;;8.00;99.90;;;;;;5138662;28;20072;-83